Clark, Minnesota
Current Conditions -  °F | °C
As of 12:45 AM on Thursday 23 Oct 2014 (Local Time) from KHZX Reporting Station
Overcast Overcast  
Wind Chill: 52°   Ceiling: 3000
Heat Index: 52°   Visibility: 10mi
Dew Point: 45°   Wind: 8mph
Humidity: 76%   Direction: 170°S
Pressure: 29.97"   Gusts: NA
Location:  46.6404°N, 93.1222°W
Report Text: KHZX 230545Z AUTO 17007KT 10SM SCT026 BKN030 OVC075 11/07 A2997 RMK AO2
Loading
Personal Weather Stations






























Interactive Weather Map
Tropical Storm Tracking
New forecast layout! Learn more

10-Day Weather Forecast

Advertisements
Track Severe Weather on mobile